sensor_id;sensor_type;location;lat;lon;timestamp;temperature;humidity
22418;DHT22;11376;50.932;4.442;2023-05-29T00:01:45;14.90;99.90
22418;DHT22;11376;50.932;4.442;2023-05-29T00:04:11;14.90;99.90
22418;DHT22;11376;50.932;4.442;2023-05-29T00:06:37;14.80;99.90
22418;DHT22;11376;50.932;4.442;2023-05-29T00:09:03;14.80;99.90
22418;DHT22;11376;50.932;4.442;2023-05-29T00:11:29;14.80;99.90
22418;DHT22;11376;50.932;4.442;2023-05-29T00:13:55;14.70;99.90
22418;DHT22;11376;50.932;4.442;2023-05-29T00:16:22;14.70;99.90
22418;DHT22;11376;50.932;4.442;2023-05-29T00:18:49;14.60;99.90
22418;DHT22;11376;50.932;4.442;2023-05-29T00:21:15;14.60;99.90
22418;DHT22;11376;50.932;4.442;2023-05-29T00:23:41;14.60;99.90
22418;DHT22;11376;50.932;4.442;2023-05-29T00:26:07;14.60;99.90
22418;DHT22;11376;50.932;4.442;2023-05-29T00:28:34;14.50;99.90
22418;DHT22;11376;50.932;4.442;2023-05-29T00:31:00;14.40;99.90
22418;DHT22;11376;50.932;4.442;2023-05-29T00:33:26;14.40;99.90
22418;DHT22;11376;50.932;4.442;2023-05-29T00:35:52;14.40;99.90
22418;DHT22;11376;50.932;4.442;2023-05-29T00:38:18;14.40;99.90
22418;DHT22;11376;50.932;4.442;2023-05-29T00:40:43;14.30;99.90
22418;DHT22;11376;50.932;4.442;2023-05-29T00:43:09;14.20;99.90
22418;DHT22;11376;50.932;4.442;2023-05-29T00:45:35;14.20;99.90
22418;DHT22;11376;50.932;4.442;2023-05-29T00:48:04;14.20;99.90
22418;DHT22;11376;50.932;4.442;2023-05-29T00:50:30;14.10;99.90
22418;DHT22;11376;50.932;4.442;2023-05-29T00:52:58;14.10;99.90
22418;DHT22;11376;50.932;4.442;2023-05-29T00:55:24;14.00;99.90
22418;DHT22;11376;50.932;4.442;2023-05-29T00:57:50;13.90;99.90
22418;DHT22;11376;50.932;4.442;2023-05-29T01:00:17;13.90;99.90
22418;DHT22;11376;50.932;4.442;2023-05-29T01:02:44;13.80;99.90
22418;DHT22;11376;50.932;4.442;2023-05-29T01:05:11;13.80;99.90
22418;DHT22;11376;50.932;4.442;2023-05-29T01:07:38;13.80;99.90
22418;DHT22;11376;50.932;4.442;2023-05-29T01:10:05;13.70;99.90
22418;DHT22;11376;50.932;4.442;2023-05-29T01:12:45;13.70;99.90
22418;DHT22;11376;50.932;4.442;2023-05-29T01:29:08;13.50;99.90
22418;DHT22;11376;50.932;4.442;2023-05-29T01:31:37;13.60;99.90
22418;DHT22;11376;50.932;4.442;2023-05-29T01:34:02;13.60;99.90
22418;DHT22;11376;50.932;4.442;2023-05-29T01:36:28;13.60;99.90
22418;DHT22;11376;50.932;4.442;2023-05-29T01:38:56;13.70;99.90
22418;DHT22;11376;50.932;4.442;2023-05-29T01:41:24;13.70;99.90
22418;DHT22;11376;50.932;4.442;2023-05-29T01:43:52;13.60;99.90
22418;DHT22;11376;50.932;4.442;2023-05-29T01:46:19;13.60;99.90
22418;DHT22;11376;50.932;4.442;2023-05-29T01:48:45;13.60;99.90
22418;DHT22;11376;50.932;4.442;2023-05-29T01:51:12;13.60;99.90
22418;DHT22;11376;50.932;4.442;2023-05-29T01:53:42;13.60;99.90
22418;DHT22;11376;50.932;4.442;2023-05-29T01:56:08;13.60;99.90
22418;DHT22;11376;50.932;4.442;2023-05-29T01:58:35;13.60;99.90
22418;DHT22;11376;50.932;4.442;2023-05-29T02:01:02;13.60;99.90
22418;DHT22;11376;50.932;4.442;2023-05-29T02:03:32;13.60;99.90
22418;DHT22;11376;50.932;4.442;2023-05-29T02:05:58;13.60;99.90
22418;DHT22;11376;50.932;4.442;2023-05-29T02:08:24;13.70;99.90
22418;DHT22;11376;50.932;4.442;2023-05-29T02:10:50;13.80;99.90
22418;DHT22;11376;50.932;4.442;2023-05-29T02:13:16;13.80;99.90
22418;DHT22;11376;50.932;4.442;2023-05-29T02:15:42;13.70;99.90
22418;DHT22;11376;50.932;4.442;2023-05-29T02:18:12;13.70;99.90
22418;DHT22;11376;50.932;4.442;2023-05-29T02:20:39;13.50;99.90
22418;DHT22;11376;50.932;4.442;2023-05-29T02:23:05;13.50;99.90
22418;DHT22;11376;50.932;4.442;2023-05-29T02:25:31;13.40;99.90
22418;DHT22;11376;50.932;4.442;2023-05-29T02:27:56;13.30;99.90
22418;DHT22;11376;50.932;4.442;2023-05-29T02:30:22;13.10;99.90
22418;DHT22;11376;50.932;4.442;2023-05-29T02:32:48;13.10;99.90
22418;DHT22;11376;50.932;4.442;2023-05-29T02:35:14;13.00;99.90
22418;DHT22;11376;50.932;4.442;2023-05-29T02:37:41;12.90;99.90
22418;DHT22;11376;50.932;4.442;2023-05-29T02:40:07;12.90;99.90
22418;DHT22;11376;50.932;4.442;2023-05-29T02:42:34;12.80;99.90
22418;DHT22;11376;50.932;4.442;2023-05-29T02:45:00;12.70;99.90
22418;DHT22;11376;50.932;4.442;2023-05-29T02:47:25;12.60;99.90
22418;DHT22;11376;50.932;4.442;2023-05-29T02:49:51;12.60;99.90
22418;DHT22;11376;50.932;4.442;2023-05-29T02:52:17;12.50;99.90
22418;DHT22;11376;50.932;4.442;2023-05-29T02:54:43;12.50;99.90
22418;DHT22;11376;50.932;4.442;2023-05-29T02:57:08;12.50;99.90
22418;DHT22;11376;50.932;4.442;2023-05-29T02:59:35;12.40;99.90
22418;DHT22;11376;50.932;4.442;2023-05-29T03:02:00;12.40;99.90
22418;DHT22;11376;50.932;4.442;2023-05-29T03:04:27;12.30;99.90
22418;DHT22;11376;50.932;4.442;2023-05-29T03:06:53;12.30;99.90
22418;DHT22;11376;50.932;4.442;2023-05-29T03:09:20;12.30;99.90
22418;DHT22;11376;50.932;4.442;2023-05-29T03:11:45;12.20;99.90
22418;DHT22;11376;50.932;4.442;2023-05-29T03:14:13;12.20;99.90
22418;DHT22;11376;50.932;4.442;2023-05-29T03:16:39;12.20;99.90
22418;DHT22;11376;50.932;4.442;2023-05-29T03:19:06;12.20;99.90
22418;DHT22;11376;50.932;4.442;2023-05-29T03:21:33;12.20;99.90
22418;DHT22;11376;50.932;4.442;2023-05-29T03:23:59;12.20;99.90
22418;DHT22;11376;50.932;4.442;2023-05-29T03:26:26;12.10;99.90
22418;DHT22;11376;50.932;4.442;2023-05-29T03:28:51;12.00;99.90
22418;DHT22;11376;50.932;4.442;2023-05-29T03:31:17;12.10;99.90
22418;DHT22;11376;50.932;4.442;2023-05-29T03:33:43;12.00;99.90
22418;DHT22;11376;50.932;4.442;2023-05-29T03:36:09;12.00;99.90
22418;DHT22;11376;50.932;4.442;2023-05-29T03:38:36;11.90;99.90
22418;DHT22;11376;50.932;4.442;2023-05-29T03:41:02;11.80;99.90
22418;DHT22;11376;50.932;4.442;2023-05-29T03:43:28;11.80;99.90
22418;DHT22;11376;50.932;4.442;2023-05-29T03:45:53;11.80;99.90
22418;DHT22;11376;50.932;4.442;2023-05-29T03:48:19;11.80;99.90
22418;DHT22;11376;50.932;4.442;2023-05-29T03:50:46;11.80;99.90
22418;DHT22;11376;50.932;4.442;2023-05-29T03:53:12;11.80;99.90
22418;DHT22;11376;50.932;4.442;2023-05-29T03:55:37;11.80;99.90
22418;DHT22;11376;50.932;4.442;2023-05-29T03:58:03;11.80;99.90
22418;DHT22;11376;50.932;4.442;2023-05-29T04:00:29;11.80;99.90
22418;DHT22;11376;50.932;4.442;2023-05-29T04:02:55;11.80;99.90
22418;DHT22;11376;50.932;4.442;2023-05-29T04:05:21;11.70;99.90
22418;DHT22;11376;50.932;4.442;2023-05-29T04:07:47;11.70;99.90
22418;DHT22;11376;50.932;4.442;2023-05-29T04:10:13;11.70;99.90
22418;DHT22;11376;50.932;4.442;2023-05-29T04:12:39;11.80;99.90
22418;DHT22;11376;50.932;4.442;2023-05-29T04:15:05;11.80;99.90
22418;DHT22;11376;50.932;4.442;2023-05-29T04:17:31;11.70;99.90
22418;DHT22;11376;50.932;4.442;2023-05-29T04:19:57;11.70;99.90
22418;DHT22;11376;50.932;4.442;2023-05-29T04:22:23;11.70;99.90
22418;DHT22;11376;50.932;4.442;2023-05-29T04:24:48;11.70;99.90
22418;DHT22;11376;50.932;4.442;2023-05-29T04:27:14;11.70;99.90
22418;DHT22;11376;50.932;4.442;2023-05-29T04:29:41;11.70;99.90
22418;DHT22;11376;50.932;4.442;2023-05-29T04:32:08;11.70;99.90
22418;DHT22;11376;50.932;4.442;2023-05-29T04:34:35;11.70;99.90
22418;DHT22;11376;50.932;4.442;2023-05-29T04:37:05;11.70;99.90
22418;DHT22;11376;50.932;4.442;2023-05-29T04:39:31;11.70;99.90
22418;DHT22;11376;50.932;4.442;2023-05-29T04:41:57;11.80;99.90
22418;DHT22;11376;50.932;4.442;2023-05-29T04:44:25;11.90;99.90
22418;DHT22;11376;50.932;4.442;2023-05-29T04:46:52;11.80;99.90
22418;DHT22;11376;50.932;4.442;2023-05-29T04:49:18;11.90;99.90
22418;DHT22;11376;50.932;4.442;2023-05-29T04:51:44;11.90;99.90
22418;DHT22;11376;50.932;4.442;2023-05-29T04:54:11;11.90;99.90
22418;DHT22;11376;50.932;4.442;2023-05-29T04:56:37;11.90;99.90
22418;DHT22;11376;50.932;4.442;2023-05-29T04:59:06;11.90;99.90
22418;DHT22;11376;50.932;4.442;2023-05-29T05:01:32;12.00;99.90
22418;DHT22;11376;50.932;4.442;2023-05-29T05:03:59;12.00;99.90
22418;DHT22;11376;50.932;4.442;2023-05-29T05:06:25;12.00;99.90
22418;DHT22;11376;50.932;4.442;2023-05-29T05:08:51;12.10;99.90
22418;DHT22;11376;50.932;4.442;2023-05-29T05:11:22;12.20;99.90
22418;DHT22;11376;50.932;4.442;2023-05-29T05:13:48;12.20;99.90
22418;DHT22;11376;50.932;4.442;2023-05-29T05:16:14;12.20;99.90
22418;DHT22;11376;50.932;4.442;2023-05-29T05:18:40;12.20;99.90
22418;DHT22;11376;50.932;4.442;2023-05-29T05:21:06;12.20;99.90
22418;DHT22;11376;50.932;4.442;2023-05-29T05:23:32;12.30;99.90
22418;DHT22;11376;50.932;4.442;2023-05-29T05:25:57;12.40;99.90
22418;DHT22;11376;50.932;4.442;2023-05-29T05:28:23;12.40;99.90
22418;DHT22;11376;50.932;4.442;2023-05-29T05:30:49;12.40;99.90
22418;DHT22;11376;50.932;4.442;2023-05-29T05:33:15;12.50;99.90
22418;DHT22;11376;50.932;4.442;2023-05-29T05:35:41;12.40;99.90
22418;DHT22;11376;50.932;4.442;2023-05-29T05:38:06;12.40;99.90
22418;DHT22;11376;50.932;4.442;2023-05-29T05:40:33;12.50;99.90
22418;DHT22;11376;50.932;4.442;2023-05-29T05:42:58;12.50;99.90
22418;DHT22;11376;50.932;4.442;2023-05-29T05:45:24;12.50;99.90
22418;DHT22;11376;50.932;4.442;2023-05-29T05:47:50;12.60;99.90
22418;DHT22;11376;50.932;4.442;2023-05-29T05:50:16;12.60;99.90
22418;DHT22;11376;50.932;4.442;2023-05-29T05:52:41;12.60;99.90
22418;DHT22;11376;50.932;4.442;2023-05-29T05:55:08;12.70;99.90
22418;DHT22;11376;50.932;4.442;2023-05-29T05:57:34;12.70;99.90
22418;DHT22;11376;50.932;4.442;2023-05-29T06:00:02;12.80;99.90
22418;DHT22;11376;50.932;4.442;2023-05-29T06:02:30;12.90;99.90
22418;DHT22;11376;50.932;4.442;2023-05-29T06:04:56;12.90;99.90
22418;DHT22;11376;50.932;4.442;2023-05-29T06:07:22;13.00;99.90
22418;DHT22;11376;50.932;4.442;2023-05-29T06:09:48;13.10;99.90
22418;DHT22;11376;50.932;4.442;2023-05-29T06:12:14;13.20;99.90
22418;DHT22;11376;50.932;4.442;2023-05-29T06:14:41;13.30;99.90
22418;DHT22;11376;50.932;4.442;2023-05-29T06:17:07;13.30;99.90
22418;DHT22;11376;50.932;4.442;2023-05-29T06:19:32;13.40;99.90
22418;DHT22;11376;50.932;4.442;2023-05-29T06:21:58;13.40;99.90
22418;DHT22;11376;50.932;4.442;2023-05-29T06:24:24;13.50;99.90
22418;DHT22;11376;50.932;4.442;2023-05-29T06:26:49;13.60;99.90
22418;DHT22;11376;50.932;4.442;2023-05-29T06:29:15;13.60;99.90
22418;DHT22;11376;50.932;4.442;2023-05-29T06:47:12;15.40;99.90
22418;DHT22;11376;50.932;4.442;2023-05-29T06:49:37;15.10;99.90
22418;DHT22;11376;50.932;4.442;2023-05-29T06:52:03;15.00;99.90
22418;DHT22;11376;50.932;4.442;2023-05-29T06:54:29;14.90;99.90
22418;DHT22;11376;50.932;4.442;2023-05-29T06:56:54;14.90;99.90
22418;DHT22;11376;50.932;4.442;2023-05-29T06:59:20;14.90;99.90
22418;DHT22;11376;50.932;4.442;2023-05-29T07:01:47;14.90;99.90
22418;DHT22;11376;50.932;4.442;2023-05-29T07:04:13;14.90;99.90
22418;DHT22;11376;50.932;4.442;2023-05-29T07:06:39;15.00;99.90
22418;DHT22;11376;50.932;4.442;2023-05-29T07:09:04;15.10;99.90
22418;DHT22;11376;50.932;4.442;2023-05-29T07:11:30;15.20;99.90
22418;DHT22;11376;50.932;4.442;2023-05-29T07:13:56;15.20;99.90
22418;DHT22;11376;50.932;4.442;2023-05-29T07:16:21;15.20;99.90
22418;DHT22;11376;50.932;4.442;2023-05-29T07:18:47;15.30;99.90
22418;DHT22;11376;50.932;4.442;2023-05-29T07:21:13;15.40;99.90
22418;DHT22;11376;50.932;4.442;2023-05-29T07:23:39;15.50;99.90
22418;DHT22;11376;50.932;4.442;2023-05-29T07:26:05;15.60;99.90
22418;DHT22;11376;50.932;4.442;2023-05-29T07:28:30;15.50;99.90
22418;DHT22;11376;50.932;4.442;2023-05-29T07:30:56;15.50;99.90
22418;DHT22;11376;50.932;4.442;2023-05-29T07:33:21;15.50;99.90
22418;DHT22;11376;50.932;4.442;2023-05-29T07:35:47;15.50;99.90
22418;DHT22;11376;50.932;4.442;2023-05-29T07:38:14;15.60;99.90
22418;DHT22;11376;50.932;4.442;2023-05-29T07:40:39;15.60;99.90
22418;DHT22;11376;50.932;4.442;2023-05-29T07:43:05;15.70;99.90
22418;DHT22;11376;50.932;4.442;2023-05-29T07:45:30;15.80;99.90
22418;DHT22;11376;50.932;4.442;2023-05-29T07:47:56;15.90;99.90
22418;DHT22;11376;50.932;4.442;2023-05-29T07:50:22;15.90;99.90
22418;DHT22;11376;50.932;4.442;2023-05-29T07:52:47;15.90;99.90
22418;DHT22;11376;50.932;4.442;2023-05-29T07:55:13;16.20;99.90
22418;DHT22;11376;50.932;4.442;2023-05-29T07:57:38;16.10;99.90
22418;DHT22;11376;50.932;4.442;2023-05-29T08:00:05;16.30;99.90
22418;DHT22;11376;50.932;4.442;2023-05-29T08:02:31;16.30;99.90
22418;DHT22;11376;50.932;4.442;2023-05-29T08:04:56;16.40;99.90
22418;DHT22;11376;50.932;4.442;2023-05-29T08:07:22;16.50;99.90
22418;DHT22;11376;50.932;4.442;2023-05-29T08:09:48;16.50;99.90
22418;DHT22;11376;50.932;4.442;2023-05-29T08:12:13;16.50;99.90
22418;DHT22;11376;50.932;4.442;2023-05-29T08:14:39;16.60;99.90
22418;DHT22;11376;50.932;4.442;2023-05-29T08:17:04;16.50;99.90
22418;DHT22;11376;50.932;4.442;2023-05-29T08:19:30;16.50;99.90
22418;DHT22;11376;50.932;4.442;2023-05-29T08:21:56;16.60;99.90
22418;DHT22;11376;50.932;4.442;2023-05-29T08:24:21;16.70;99.90
22418;DHT22;11376;50.932;4.442;2023-05-29T08:39:39;16.70;99.90
22418;DHT22;11376;50.932;4.442;2023-05-29T08:42:07;16.60;99.90
22418;DHT22;11376;50.932;4.442;2023-05-29T08:44:39;16.70;99.90
22418;DHT22;11376;50.932;4.442;2023-05-29T08:47:06;16.90;99.90
22418;DHT22;11376;50.932;4.442;2023-05-29T08:49:43;17.10;99.90
22418;DHT22;11376;50.932;4.442;2023-05-29T08:52:21;17.20;99.90
22418;DHT22;11376;50.932;4.442;2023-05-29T08:54:47;17.30;99.90
22418;DHT22;11376;50.932;4.442;2023-05-29T08:57:13;17.30;99.90
22418;DHT22;11376;50.932;4.442;2023-05-29T08:59:42;17.40;99.90
22418;DHT22;11376;50.932;4.442;2023-05-29T09:02:10;17.50;99.90
22418;DHT22;11376;50.932;4.442;2023-05-29T09:04:37;17.70;99.90
22418;DHT22;11376;50.932;4.442;2023-05-29T09:07:02;17.80;99.90
22418;DHT22;11376;50.932;4.442;2023-05-29T09:09:29;17.80;99.90
22418;DHT22;11376;50.932;4.442;2023-05-29T09:11:56;17.90;99.90
22418;DHT22;11376;50.932;4.442;2023-05-29T09:14:45;17.90;99.90
22418;DHT22;11376;50.932;4.442;2023-05-29T09:17:12;17.80;99.90
22418;DHT22;11376;50.932;4.442;2023-05-29T09:19:38;17.90;99.90
22418;DHT22;11376;50.932;4.442;2023-05-29T09:22:07;17.90;99.90
22418;DHT22;11376;50.932;4.442;2023-05-29T09:24:34;18.00;99.90
22418;DHT22;11376;50.932;4.442;2023-05-29T09:27:00;18.00;99.90
22418;DHT22;11376;50.932;4.442;2023-05-29T09:29:30;18.00;99.90
22418;DHT22;11376;50.932;4.442;2023-05-29T09:31:56;18.20;99.90
22418;DHT22;11376;50.932;4.442;2023-05-29T09:34:24;18.40;99.90
22418;DHT22;11376;50.932;4.442;2023-05-29T09:36:50;18.50;99.90
22418;DHT22;11376;50.932;4.442;2023-05-29T09:39:16;18.50;99.90
22418;DHT22;11376;50.932;4.442;2023-05-29T09:41:44;18.60;99.90
22418;DHT22;11376;50.932;4.442;2023-05-29T09:44:14;18.70;99.90
22418;DHT22;11376;50.932;4.442;2023-05-29T09:46:41;18.90;99.90
22418;DHT22;11376;50.932;4.442;2023-05-29T09:49:12;18.80;99.90
22418;DHT22;11376;50.932;4.442;2023-05-29T09:51:38;18.90;99.90
22418;DHT22;11376;50.932;4.442;2023-05-29T09:54:17;18.90;99.90
22418;DHT22;11376;50.932;4.442;2023-05-29T09:56:44;19.00;99.90
22418;DHT22;11376;50.932;4.442;2023-05-29T09:59:16;19.00;99.90
22418;DHT22;11376;50.932;4.442;2023-05-29T10:01:43;18.90;99.90
22418;DHT22;11376;50.932;4.442;2023-05-29T10:04:10;18.90;99.90
22418;DHT22;11376;50.932;4.442;2023-05-29T10:06:37;19.00;99.90
22418;DHT22;11376;50.932;4.442;2023-05-29T10:09:06;19.20;99.90
22418;DHT22;11376;50.932;4.442;2023-05-29T10:11:33;19.20;99.90
22418;DHT22;11376;50.932;4.442;2023-05-29T10:14:00;19.40;99.90
22418;DHT22;11376;50.932;4.442;2023-05-29T10:16:28;19.50;99.90
22418;DHT22;11376;50.932;4.442;2023-05-29T10:18:56;19.40;99.90
22418;DHT22;11376;50.932;4.442;2023-05-29T10:21:24;19.40;99.90
22418;DHT22;11376;50.932;4.442;2023-05-29T10:23:52;19.70;99.90
22418;DHT22;11376;50.932;4.442;2023-05-29T10:26:26;19.90;99.90
22418;DHT22;11376;50.932;4.442;2023-05-29T10:31:24;20.10;99.90
22418;DHT22;11376;50.932;4.442;2023-05-29T10:34:11;20.10;99.90
22418;DHT22;11376;50.932;4.442;2023-05-29T10:36:49;20.00;99.90
22418;DHT22;11376;50.932;4.442;2023-05-29T10:39:20;19.90;99.90
22418;DHT22;11376;50.932;4.442;2023-05-29T10:41:45;20.00;99.90
22418;DHT22;11376;50.932;4.442;2023-05-29T10:49:23;20.60;99.90
22418;DHT22;11376;50.932;4.442;2023-05-29T10:51:49;20.90;99.90
22418;DHT22;11376;50.932;4.442;2023-05-29T10:54:15;21.00;99.90
22418;DHT22;11376;50.932;4.442;2023-05-29T10:56:45;21.40;99.90
22418;DHT22;11376;50.932;4.442;2023-05-29T10:59:17;21.70;99.90
22418;DHT22;11376;50.932;4.442;2023-05-29T11:01:43;21.90;99.90
22418;DHT22;11376;50.932;4.442;2023-05-29T11:04:25;22.30;99.90
22418;DHT22;11376;50.932;4.442;2023-05-29T11:06:52;22.80;99.90
22418;DHT22;11376;50.932;4.442;2023-05-29T11:09:32;23.20;99.90
22418;DHT22;11376;50.932;4.442;2023-05-29T11:12:22;23.80;99.90
22418;DHT22;11376;50.932;4.442;2023-05-29T11:15:08;24.40;99.90
22418;DHT22;11376;50.932;4.442;2023-05-29T11:20:08;26.70;97.60
22418;DHT22;11376;50.932;4.442;2023-05-29T11:25:09;28.40;91.40
22418;DHT22;11376;50.932;4.442;2023-05-29T11:27:35;28.90;88.70
22418;DHT22;11376;50.932;4.442;2023-05-29T11:30:04;29.00;84.80
22418;DHT22;11376;50.932;4.442;2023-05-29T11:32:32;29.50;81.40
22418;DHT22;11376;50.932;4.442;2023-05-29T11:35:08;30.00;78.90
22418;DHT22;11376;50.932;4.442;2023-05-29T11:37:35;30.10;74.90
22418;DHT22;11376;50.932;4.442;2023-05-29T11:40:04;30.50;73.50
22418;DHT22;11376;50.932;4.442;2023-05-29T11:42:31;30.90;70.70
22418;DHT22;11376;50.932;4.442;2023-05-29T11:45:19;31.70;66.50
22418;DHT22;11376;50.932;4.442;2023-05-29T11:50:21;31.60;62.10
22418;DHT22;11376;50.932;4.442;2023-05-29T11:52:47;31.80;62.30
22418;DHT22;11376;50.932;4.442;2023-05-29T11:55:13;31.50;60.60
22418;DHT22;11376;50.932;4.442;2023-05-29T11:57:39;31.60;60.10
22418;DHT22;11376;50.932;4.442;2023-05-29T12:00:07;31.80;58.80
22418;DHT22;11376;50.932;4.442;2023-05-29T12:02:33;32.50;57.50
22418;DHT22;11376;50.932;4.442;2023-05-29T12:05:02;32.90;55.90
22418;DHT22;11376;50.932;4.442;2023-05-29T12:07:28;32.90;55.20
22418;DHT22;11376;50.932;4.442;2023-05-29T12:09:54;32.80;53.80
22418;DHT22;11376;50.932;4.442;2023-05-29T12:12:23;33.20;53.30
22418;DHT22;11376;50.932;4.442;2023-05-29T12:14:52;32.70;52.90
22418;DHT22;11376;50.932;4.442;2023-05-29T12:17:19;33.20;53.00
22418;DHT22;11376;50.932;4.442;2023-05-29T12:19:46;33.20;51.90
22418;DHT22;11376;50.932;4.442;2023-05-29T12:22:12;32.80;53.20
22418;DHT22;11376;50.932;4.442;2023-05-29T12:24:37;33.00;51.70
22418;DHT22;11376;50.932;4.442;2023-05-29T12:27:04;32.90;51.70
22418;DHT22;11376;50.932;4.442;2023-05-29T12:29:36;32.90;50.90
22418;DHT22;11376;50.932;4.442;2023-05-29T12:32:01;33.10;51.30
22418;DHT22;11376;50.932;4.442;2023-05-29T12:34:34;33.70;50.30
22418;DHT22;11376;50.932;4.442;2023-05-29T12:37:08;34.30;49.60
22418;DHT22;11376;50.932;4.442;2023-05-29T12:39:35;34.60;49.00
22418;DHT22;11376;50.932;4.442;2023-05-29T12:42:01;34.40;47.70
22418;DHT22;11376;50.932;4.442;2023-05-29T12:44:27;34.00;47.70
22418;DHT22;11376;50.932;4.442;2023-05-29T12:46:56;33.80;48.40
22418;DHT22;11376;50.932;4.442;2023-05-29T12:49:22;33.60;48.80
22418;DHT22;11376;50.932;4.442;2023-05-29T12:51:51;33.90;47.60
22418;DHT22;11376;50.932;4.442;2023-05-29T12:54:17;34.50;46.70
22418;DHT22;11376;50.932;4.442;2023-05-29T12:56:43;34.00;46.40
22418;DHT22;11376;50.932;4.442;2023-05-29T12:59:10;33.20;48.20
22418;DHT22;11376;50.932;4.442;2023-05-29T13:01:36;32.70;48.90
22418;DHT22;11376;50.932;4.442;2023-05-29T13:04:06;32.80;49.20
22418;DHT22;11376;50.932;4.442;2023-05-29T13:06:36;33.30;49.20
22418;DHT22;11376;50.932;4.442;2023-05-29T13:09:02;33.00;49.30
22418;DHT22;11376;50.932;4.442;2023-05-29T13:11:28;33.50;48.60
22418;DHT22;11376;50.932;4.442;2023-05-29T13:13:53;33.70;47.40
22418;DHT22;11376;50.932;4.442;2023-05-29T13:16:19;33.50;47.40
22418;DHT22;11376;50.932;4.442;2023-05-29T13:18:45;33.90;46.90
22418;DHT22;11376;50.932;4.442;2023-05-29T13:21:10;34.30;46.30
22418;DHT22;11376;50.932;4.442;2023-05-29T13:23:36;33.30;47.60
22418;DHT22;11376;50.932;4.442;2023-05-29T13:26:03;33.30;47.10
22418;DHT22;11376;50.932;4.442;2023-05-29T13:28:29;33.30;46.90
22418;DHT22;11376;50.932;4.442;2023-05-29T13:30:55;33.70;46.70
22418;DHT22;11376;50.932;4.442;2023-05-29T13:33:20;34.10;46.40
22418;DHT22;11376;50.932;4.442;2023-05-29T13:35:46;34.60;45.90
22418;DHT22;11376;50.932;4.442;2023-05-29T13:38:12;35.00;45.30
22418;DHT22;11376;50.932;4.442;2023-05-29T13:40:38;34.00;46.20
22418;DHT22;11376;50.932;4.442;2023-05-29T13:43:03;33.20;47.60
22418;DHT22;11376;50.932;4.442;2023-05-29T13:45:29;32.70;47.50
22418;DHT22;11376;50.932;4.442;2023-05-29T13:47:55;32.00;48.70
22418;DHT22;11376;50.932;4.442;2023-05-29T13:50:21;31.80;49.40
22418;DHT22;11376;50.932;4.442;2023-05-29T13:52:49;32.10;48.40
22418;DHT22;11376;50.932;4.442;2023-05-29T13:55:14;32.50;48.30
22418;DHT22;11376;50.932;4.442;2023-05-29T13:57:40;32.70;47.80
22418;DHT22;11376;50.932;4.442;2023-05-29T14:00:09;33.00;47.00
22418;DHT22;11376;50.932;4.442;2023-05-29T14:02:35;33.00;47.20
22418;DHT22;11376;50.932;4.442;2023-05-29T14:05:00;32.40;47.30
22418;DHT22;11376;50.932;4.442;2023-05-29T14:07:26;32.50;48.10
22418;DHT22;11376;50.932;4.442;2023-05-29T14:09:52;32.60;47.50
22418;DHT22;11376;50.932;4.442;2023-05-29T14:12:17;33.20;47.30
22418;DHT22;11376;50.932;4.442;2023-05-29T14:14:43;32.80;46.40
22418;DHT22;11376;50.932;4.442;2023-05-29T14:17:08;32.70;46.70
22418;DHT22;11376;50.932;4.442;2023-05-29T14:19:34;33.10;46.80
22418;DHT22;11376;50.932;4.442;2023-05-29T14:22:00;33.30;46.50
22418;DHT22;11376;50.932;4.442;2023-05-29T14:24:27;33.00;47.00
22418;DHT22;11376;50.932;4.442;2023-05-29T14:26:52;32.20;47.30
22418;DHT22;11376;50.932;4.442;2023-05-29T14:29:18;31.80;47.60
22418;DHT22;11376;50.932;4.442;2023-05-29T14:31:43;32.20;48.50
22418;DHT22;11376;50.932;4.442;2023-05-29T14:34:09;32.10;47.80
22418;DHT22;11376;50.932;4.442;2023-05-29T14:36:35;32.00;48.50
22418;DHT22;11376;50.932;4.442;2023-05-29T14:39:03;31.70;48.30
22418;DHT22;11376;50.932;4.442;2023-05-29T14:41:28;30.60;49.90
22418;DHT22;11376;50.932;4.442;2023-05-29T14:43:54;29.60;51.60
22418;DHT22;11376;50.932;4.442;2023-05-29T14:46:24;28.70;53.40
22418;DHT22;11376;50.932;4.442;2023-05-29T14:48:50;28.30;53.10
22418;DHT22;11376;50.932;4.442;2023-05-29T14:51:16;28.10;54.30
22418;DHT22;11376;50.932;4.442;2023-05-29T14:53:43;28.30;54.90
22418;DHT22;11376;50.932;4.442;2023-05-29T14:56:13;28.00;54.00
22418;DHT22;11376;50.932;4.442;2023-05-29T14:58:38;28.20;53.80
22418;DHT22;11376;50.932;4.442;2023-05-29T15:01:04;28.20;53.50
22418;DHT22;11376;50.932;4.442;2023-05-29T15:03:32;28.10;53.60
22418;DHT22;11376;50.932;4.442;2023-05-29T15:05:57;27.40;54.70
22418;DHT22;11376;50.932;4.442;2023-05-29T15:08:23;27.20;55.40
22418;DHT22;11376;50.932;4.442;2023-05-29T15:10:49;27.00;55.10
22418;DHT22;11376;50.932;4.442;2023-05-29T15:13:14;26.80;55.70
22418;DHT22;11376;50.932;4.442;2023-05-29T15:15:40;26.90;56.50
22418;DHT22;11376;50.932;4.442;2023-05-29T15:18:05;26.60;56.60
22418;DHT22;11376;50.932;4.442;2023-05-29T15:20:32;26.80;56.60
22418;DHT22;11376;50.932;4.442;2023-05-29T15:22:58;26.80;56.20
22418;DHT22;11376;50.932;4.442;2023-05-29T15:25:23;26.90;55.20
22418;DHT22;11376;50.932;4.442;2023-05-29T15:27:49;27.00;55.00
22418;DHT22;11376;50.932;4.442;2023-05-29T15:30:17;26.80;55.70
22418;DHT22;11376;50.932;4.442;2023-05-29T15:32:44;27.10;56.00
22418;DHT22;11376;50.932;4.442;2023-05-29T15:35:12;27.30;55.60
22418;DHT22;11376;50.932;4.442;2023-05-29T15:37:38;27.00;55.10
22418;DHT22;11376;50.932;4.442;2023-05-29T15:40:06;26.70;55.50
22418;DHT22;11376;50.932;4.442;2023-05-29T15:42:32;26.50;54.40
22418;DHT22;11376;50.932;4.442;2023-05-29T15:44:57;26.50;55.10
22418;DHT22;11376;50.932;4.442;2023-05-29T15:47:23;26.30;54.30
22418;DHT22;11376;50.932;4.442;2023-05-29T15:49:49;25.80;54.70
22418;DHT22;11376;50.932;4.442;2023-05-29T15:52:15;25.70;55.40
22418;DHT22;11376;50.932;4.442;2023-05-29T15:54:40;25.70;55.40
22418;DHT22;11376;50.932;4.442;2023-05-29T15:57:06;25.40;55.80
22418;DHT22;11376;50.932;4.442;2023-05-29T15:59:32;24.90;56.60
22418;DHT22;11376;50.932;4.442;2023-05-29T16:01:58;25.00;56.80
22418;DHT22;11376;50.932;4.442;2023-05-29T16:04:26;25.30;56.70
22418;DHT22;11376;50.932;4.442;2023-05-29T16:06:51;25.40;55.90
22418;DHT22;11376;50.932;4.442;2023-05-29T16:09:17;25.50;55.30
22418;DHT22;11376;50.932;4.442;2023-05-29T16:11:47;25.60;55.90
22418;DHT22;11376;50.932;4.442;2023-05-29T16:14:12;26.00;55.50
22418;DHT22;11376;50.932;4.442;2023-05-29T16:16:38;26.20;55.50
22418;DHT22;11376;50.932;4.442;2023-05-29T16:19:08;26.10;54.90
22418;DHT22;11376;50.932;4.442;2023-05-29T16:21:34;26.40;54.80
22418;DHT22;11376;50.932;4.442;2023-05-29T16:24:02;26.20;53.90
22418;DHT22;11376;50.932;4.442;2023-05-29T16:26:28;26.30;53.50